Terminal Aerodrome Forecast
Issued by NWS

Home | Current Version | Previous Version | Text Only | Print | Product List | Glossary On
Versions: 1 2 3 4 5 6 7 8 9 10 11 12 13 14 15
000
FTUS43 KDMX 201138
TAFFOD
TAF
KFOD 201138Z 2012/2112 17012G19KT P6SM VCSH SCT050 BKN120
     FM201600 18009KT P6SM SCT060 BKN110
     FM202200 20010KT P6SM -SHRA VCTS BKN050CB OVC120
     FM210400 27009KT 5SM -TSRA BR BKN030CB OVC100
     FM210900 31010KT P6SM SCT035 BKN100=

USA.gov is the U.S. government's official web portal to all federal, state and local government web resources and services.